createdAt,value
2023-08-01T00:04:23.594Z,18.04
2023-08-01T00:08:47.439Z,18.05
2023-08-01T00:13:11.361Z,18.05
2023-08-01T00:17:33.904Z,18.01
2023-08-01T00:21:57.707Z,18.06
2023-08-01T00:26:21.085Z,18.06
2023-08-01T00:30:26.527Z,18.06
2023-08-01T00:34:50.420Z,18.04
2023-08-01T00:39:07.389Z,18.05
2023-08-01T00:43:31.200Z,18.01
2023-08-01T00:47:55.035Z,17.99
2023-08-01T00:52:18.973Z,18.00
2023-08-01T00:56:42.795Z,18.01
2023-08-01T01:01:07.220Z,18.05
2023-08-01T01:04:49.562Z,18.06
2023-08-01T01:07:53.338Z,18.08
2023-08-01T01:10:56.167Z,18.12
2023-08-01T01:13:59.004Z,18.20
2023-08-01T01:17:01.926Z,18.27
2023-08-01T01:20:05.142Z,18.32
2023-08-01T01:23:10.504Z,18.37
2023-08-01T01:26:32.725Z,18.41
2023-08-01T01:29:35.614Z,18.43
2023-08-01T01:32:38.509Z,18.45
2023-08-01T01:35:42.091Z,18.48
2023-08-01T01:38:44.912Z,18.51
2023-08-01T01:41:48.006Z,18.54
2023-08-01T01:44:50.845Z,18.54
2023-08-01T01:47:53.971Z,18.52
2023-08-01T01:50:56.894Z,18.54
2023-08-01T01:53:59.655Z,18.56
2023-08-01T01:57:03.171Z,18.56
2023-08-01T02:00:07.015Z,18.53
2023-08-01T02:03:15.590Z,18.47
2023-08-01T02:06:18.421Z,18.43
2023-08-01T02:09:21.265Z,18.42
2023-08-01T02:12:24.356Z,18.31
2023-08-01T02:15:27.196Z,18.28
2023-08-01T02:18:29.998Z,18.24
2023-08-01T02:21:32.901Z,18.23
2023-08-01T02:24:35.698Z,18.24
2023-08-01T02:27:38.447Z,18.23
2023-08-01T02:30:41.209Z,18.23
2023-08-01T02:33:44.132Z,18.21
2023-08-01T02:36:46.854Z,18.21
2023-08-01T02:39:49.588Z,18.23
2023-08-01T02:42:52.261Z,18.27
2023-08-01T02:45:54.997Z,18.21
2023-08-01T02:48:57.946Z,18.18
2023-08-01T02:52:00.751Z,18.23
2023-08-01T02:55:03.884Z,18.23
2023-08-01T02:58:06.719Z,18.24
2023-08-01T03:01:11.550Z,18.23
2023-08-01T03:04:14.500Z,18.21
2023-08-01T03:07:17.284Z,18.23
2023-08-01T03:10:30.893Z,18.26
2023-08-01T03:13:39.306Z,18.19
2023-08-01T03:16:42.434Z,18.16
2023-08-01T03:19:45.423Z,18.13
2023-08-01T03:22:48.197Z,18.10
2023-08-01T03:25:51.081Z,18.07
2023-08-01T03:28:53.845Z,18.07
2023-08-01T03:31:56.708Z,18.07
2023-08-01T03:34:59.885Z,18.09
2023-08-01T03:38:02.733Z,18.10
2023-08-01T03:41:06.533Z,18.17
2023-08-01T03:44:09.411Z,18.30
2023-08-01T03:47:12.173Z,18.47
2023-08-01T03:50:15.203Z,18.54
2023-08-01T03:53:17.981Z,18.56
2023-08-01T03:56:20.808Z,18.63
2023-08-01T03:59:24.033Z,18.72
2023-08-01T04:02:26.963Z,18.84
2023-08-01T04:05:30.213Z,18.85
2023-08-01T04:08:33.004Z,18.83
2023-08-01T04:11:35.782Z,18.79
2023-08-01T04:14:38.525Z,18.78
2023-08-01T04:17:41.669Z,18.79
2023-08-01T04:20:44.549Z,18.77
2023-08-01T04:23:47.494Z,18.75
2023-08-01T04:26:50.260Z,18.74
2023-08-01T04:29:53.004Z,18.70
2023-08-01T04:32:55.883Z,18.69
2023-08-01T04:35:58.750Z,18.72
2023-08-01T04:39:01.562Z,18.74
2023-08-01T04:42:04.706Z,18.71
2023-08-01T04:45:08.233Z,18.71
2023-08-01T04:48:11.089Z,18.73
2023-08-01T04:51:13.879Z,18.71
2023-08-01T04:54:16.735Z,18.69
2023-08-01T04:57:19.548Z,18.68
2023-08-01T05:00:22.417Z,18.74
2023-08-01T05:03:25.236Z,18.77
2023-08-01T05:06:29.038Z,18.80
2023-08-01T05:09:31.849Z,18.84
2023-08-01T05:12:34.647Z,18.90
2023-08-01T05:15:37.410Z,18.97
2023-08-01T05:18:40.366Z,19.05
2023-08-01T05:21:43.134Z,19.16
2023-08-01T05:24:46.239Z,19.28
2023-08-01T05:27:49.159Z,19.39
2023-08-01T05:30:51.976Z,19.47
2023-08-01T05:33:54.766Z,19.54
2023-08-01T05:36:57.663Z,19.61
2023-08-01T05:40:00.509Z,19.68
2023-08-01T05:43:05.258Z,19.74
2023-08-01T05:46:08.181Z,19.77
2023-08-01T05:49:10.988Z,19.79
2023-08-01T05:52:13.795Z,19.81
2023-08-01T05:55:16.576Z,19.85
2023-08-01T05:58:19.405Z,19.92
2023-08-01T06:01:23.002Z,20.01
2023-08-01T06:04:25.938Z,20.13
2023-08-01T06:07:28.862Z,20.28
2023-08-01T06:10:31.703Z,20.43
2023-08-01T06:13:34.619Z,20.54
2023-08-01T06:16:37.503Z,20.67
2023-08-01T06:19:40.325Z,20.78
2023-08-01T06:22:43.990Z,20.95
2023-08-01T06:25:46.790Z,21.14
2023-08-01T06:28:49.581Z,21.26
2023-08-01T06:31:52.918Z,21.30
2023-08-01T06:34:55.663Z,21.37
2023-08-01T06:37:58.627Z,21.43
2023-08-01T06:41:01.488Z,21.52
2023-08-01T06:44:04.486Z,21.58
2023-08-01T06:47:07.498Z,21.62
2023-08-01T06:50:11.025Z,21.70
2023-08-01T06:53:13.947Z,21.79
2023-08-01T06:56:16.745Z,21.87
2023-08-01T06:59:19.577Z,21.96
2023-08-01T07:02:22.513Z,22.07
2023-08-01T07:05:25.749Z,22.32
2023-08-01T07:08:28.612Z,22.63
2023-08-01T07:11:31.475Z,22.85
2023-08-01T07:14:34.278Z,23.01
2023-08-01T07:17:37.184Z,23.28
2023-08-01T07:20:39.959Z,23.55
2023-08-01T07:23:42.922Z,23.74
2023-08-01T07:26:45.734Z,23.85
2023-08-01T07:29:48.808Z,23.92
2023-08-01T07:32:51.684Z,23.94
2023-08-01T07:35:54.941Z,24.00
2023-08-01T07:38:57.734Z,24.10
2023-08-01T07:42:00.662Z,24.22
2023-08-01T07:45:03.723Z,24.30
2023-08-01T07:48:06.571Z,24.33
2023-08-01T07:51:09.379Z,24.30
2023-08-01T07:54:12.186Z,24.23
2023-08-01T07:57:14.995Z,24.20
2023-08-01T08:00:18.005Z,24.16
2023-08-01T08:03:23.503Z,24.03
2023-08-01T08:06:26.476Z,23.96
2023-08-01T08:09:29.216Z,23.94
2023-08-01T08:12:32.518Z,23.94
2023-08-01T08:15:36.048Z,23.91
2023-08-01T08:18:38.858Z,23.80
2023-08-01T08:21:42.099Z,23.70
2023-08-01T08:24:44.904Z,23.62
2023-08-01T08:27:49.448Z,23.63
2023-08-01T08:30:52.299Z,23.62
2023-08-01T08:33:57.896Z,23.68
2023-08-01T08:37:00.718Z,23.63
2023-08-01T08:40:04.638Z,23.60
2023-08-01T08:43:07.893Z,23.58
2023-08-01T08:46:11.711Z,23.60
2023-08-01T08:49:16.961Z,23.61
2023-08-01T08:52:20.318Z,23.58
2023-08-01T08:55:23.483Z,23.59
2023-08-01T08:58:26.585Z,23.58
2023-08-01T09:01:29.623Z,23.56
2023-08-01T09:04:33.236Z,23.49
2023-08-01T09:07:40.389Z,23.45
2023-08-01T09:10:43.262Z,23.38
2023-08-01T09:13:46.164Z,23.29
2023-08-01T09:16:49.706Z,23.23
2023-08-01T09:20:12.969Z,23.15
2023-08-01T09:23:17.749Z,23.05
2023-08-01T09:26:21.404Z,22.95
2023-08-01T09:29:24.445Z,22.88
2023-08-01T09:32:27.316Z,22.82
2023-08-01T09:35:39.708Z,22.76
2023-08-01T09:38:42.569Z,22.74
2023-08-01T09:41:45.705Z,22.72
2023-08-01T09:44:48.512Z,22.67
2023-08-01T09:47:51.350Z,22.61
2023-08-01T09:51:16.805Z,22.52
2023-08-01T09:54:20.072Z,22.44
2023-08-01T09:57:23.849Z,22.37
2023-08-01T10:00:31.040Z,22.30
2023-08-01T10:03:34.102Z,22.25
2023-08-01T10:06:39.966Z,22.20
2023-08-01T10:09:43.562Z,22.19
2023-08-01T10:12:49.256Z,22.25
2023-08-01T10:15:53.196Z,22.33
2023-08-01T10:18:55.994Z,22.46
2023-08-01T10:21:59.582Z,22.58
2023-08-01T10:25:04.121Z,22.72
2023-08-01T10:28:07.602Z,22.77
2023-08-01T10:31:15.464Z,22.80
2023-08-01T10:34:20.287Z,22.83
2023-08-01T10:37:23.061Z,22.87
2023-08-01T10:40:41.275Z,22.91
2023-08-01T10:43:46.796Z,23.00
2023-08-01T10:46:49.617Z,23.16
2023-08-01T10:49:52.446Z,23.29
2023-08-01T10:53:05.014Z,23.32
2023-08-01T10:56:09.570Z,23.39
2023-08-01T10:59:13.545Z,23.50
2023-08-01T11:02:24.582Z,23.54
2023-08-01T11:05:29.428Z,23.53
2023-08-01T11:08:40.073Z,23.50
2023-08-01T11:11:43.160Z,23.44
2023-08-01T11:14:46.113Z,23.41
2023-08-01T11:17:54.874Z,23.42
2023-08-01T11:20:58.046Z,23.41
2023-08-01T11:24:00.994Z,23.38
2023-08-01T11:27:04.051Z,23.42
2023-08-01T11:30:07.731Z,23.45
2023-08-01T11:33:22.073Z,23.47
2023-08-01T11:36:29.593Z,23.50
2023-08-01T11:39:32.649Z,23.55
2023-08-01T11:42:35.453Z,23.62
2023-08-01T11:45:38.318Z,23.64
2023-08-01T11:48:46.973Z,23.68
2023-08-01T11:51:49.928Z,23.60
2023-08-01T11:54:53.403Z,23.56
2023-08-01T11:57:58.420Z,23.55
2023-08-01T12:01:13.634Z,23.57
2023-08-01T12:04:34.414Z,23.64
2023-08-01T12:07:37.221Z,23.68
2023-08-01T12:10:44.929Z,23.72
2023-08-01T12:13:49.318Z,23.82
2023-08-01T12:16:52.160Z,23.94
2023-08-01T12:19:54.953Z,24.07
2023-08-01T12:22:57.812Z,24.20
2023-08-01T12:26:00.910Z,24.28
2023-08-01T12:29:04.048Z,24.29
2023-08-01T12:32:08.077Z,24.25
2023-08-01T12:35:11.463Z,24.22
2023-08-01T12:38:14.260Z,24.20
2023-08-01T12:41:17.159Z,24.16
2023-08-01T12:44:19.952Z,24.03
2023-08-01T12:47:22.845Z,23.89
2023-08-01T12:50:25.884Z,23.83
2023-08-01T12:53:29.872Z,23.71
2023-08-01T12:56:35.204Z,23.56
2023-08-01T12:59:38.145Z,23.45
2023-08-01T13:02:40.955Z,23.34
2023-08-01T13:05:44.200Z,23.24
2023-08-01T13:08:47.048Z,23.12
2023-08-01T13:11:49.859Z,23.02
2023-08-01T13:14:58.073Z,22.90
2023-08-01T13:18:06.769Z,22.80
2023-08-01T13:21:09.850Z,22.79
2023-08-01T13:24:12.686Z,22.80
2023-08-01T13:27:15.500Z,22.85
2023-08-01T13:30:21.189Z,22.89
2023-08-01T13:33:24.044Z,22.91
2023-08-01T13:36:26.862Z,22.94
2023-08-01T13:39:29.609Z,22.94
2023-08-01T13:42:32.707Z,22.89
2023-08-01T13:45:35.938Z,22.85
2023-08-01T13:48:38.809Z,22.85
2023-08-01T13:51:41.688Z,22.89
2023-08-01T13:54:44.525Z,22.90
2023-08-01T13:57:47.296Z,22.90
2023-08-01T14:00:50.105Z,22.97
2023-08-01T14:03:52.895Z,23.04
2023-08-01T14:06:56.443Z,23.03
2023-08-01T14:09:59.359Z,22.97
2023-08-01T14:13:02.331Z,22.89
2023-08-01T14:16:05.387Z,22.81
2023-08-01T14:19:08.248Z,22.82
2023-08-01T14:22:11.036Z,22.89
2023-08-01T14:25:13.823Z,22.91
2023-08-01T14:28:16.632Z,22.93
2023-08-01T14:31:19.436Z,22.88
2023-08-01T14:34:22.385Z,22.81
2023-08-01T14:37:27.027Z,22.74
2023-08-01T14:40:30.591Z,22.67
2023-08-01T14:43:33.384Z,22.62
2023-08-01T14:46:37.167Z,22.63
2023-08-01T14:49:40.800Z,22.63
2023-08-01T14:52:43.604Z,22.61
2023-08-01T14:55:46.467Z,22.59
2023-08-01T14:58:49.395Z,22.56
2023-08-01T15:01:52.510Z,22.49
2023-08-01T15:04:57.624Z,22.41
2023-08-01T15:08:01.370Z,22.33
2023-08-01T15:11:07.609Z,22.24
2023-08-01T15:14:10.372Z,22.16
2023-08-01T15:17:13.348Z,22.08
2023-08-01T15:20:17.660Z,22.07
2023-08-01T15:23:21.487Z,22.11
2023-08-01T15:26:24.335Z,22.14
2023-08-01T15:29:27.754Z,22.14
2023-08-01T15:32:30.539Z,22.14
2023-08-01T15:35:33.351Z,22.19
2023-08-01T15:38:38.221Z,22.27
2023-08-01T15:41:41.214Z,22.34
2023-08-01T15:44:44.303Z,22.35
2023-08-01T15:47:47.176Z,22.41
2023-08-01T15:50:50.751Z,22.46
2023-08-01T15:53:54.180Z,22.46
2023-08-01T15:56:57.085Z,22.45
2023-08-01T16:00:01.875Z,22.44
2023-08-01T16:03:14.844Z,22.44
2023-08-01T16:06:17.922Z,22.42
2023-08-01T16:09:20.908Z,22.43
2023-08-01T16:12:23.794Z,22.42
2023-08-01T16:15:26.567Z,22.39
2023-08-01T16:18:29.459Z,22.35
2023-08-01T16:21:32.220Z,22.31
2023-08-01T16:24:36.307Z,22.27
2023-08-01T16:27:39.167Z,22.25
2023-08-01T16:30:41.931Z,22.25
2023-08-01T16:33:45.640Z,22.20
2023-08-01T16:36:48.419Z,22.13
2023-08-01T16:39:51.226Z,22.04
2023-08-01T16:42:54.048Z,21.96
2023-08-01T16:45:58.972Z,21.92
2023-08-01T16:49:17.350Z,21.87
2023-08-01T16:52:24.833Z,21.81
2023-08-01T16:55:27.695Z,21.76
2023-08-01T16:58:30.469Z,21.72
2023-08-01T17:01:33.239Z,21.70
2023-08-01T17:04:37.993Z,21.69
2023-08-01T17:07:40.855Z,21.67
2023-08-01T17:10:43.632Z,21.65
2023-08-01T17:13:46.451Z,21.62
2023-08-01T17:16:49.308Z,21.58
2023-08-01T17:19:52.179Z,21.55
2023-08-01T17:22:57.785Z,21.52
2023-08-01T17:26:00.719Z,21.48
2023-08-01T17:29:03.595Z,21.45
2023-08-01T17:32:06.649Z,21.43
2023-08-01T17:35:09.905Z,21.41
2023-08-01T17:38:13.835Z,21.37
2023-08-01T17:41:25.563Z,21.32
2023-08-01T17:44:30.165Z,21.29
2023-08-01T17:47:35.409Z,21.25
2023-08-01T17:50:38.336Z,21.19
2023-08-01T17:53:44.198Z,21.10
2023-08-01T17:56:47.048Z,20.93
2023-08-01T17:59:49.957Z,20.82
2023-08-01T18:02:52.816Z,20.77
2023-08-01T18:06:13.614Z,20.66
2023-08-01T18:09:19.591Z,20.40
2023-08-01T18:12:22.509Z,20.15
2023-08-01T18:15:25.344Z,19.90
2023-08-01T18:18:28.159Z,19.68
2023-08-01T18:21:31.054Z,19.51
2023-08-01T18:24:34.024Z,19.36
2023-08-01T18:27:36.879Z,19.25
2023-08-01T18:30:39.686Z,19.16
2023-08-01T18:33:42.858Z,19.12
2023-08-01T18:36:45.876Z,19.09
2023-08-01T18:39:53.874Z,19.08
2023-08-01T18:42:57.386Z,19.07
2023-08-01T18:46:00.432Z,19.06
2023-08-01T18:49:03.295Z,19.00
2023-08-01T18:52:06.474Z,18.92
2023-08-01T18:55:09.577Z,18.88
2023-08-01T18:58:12.360Z,18.85
2023-08-01T19:01:24.302Z,18.85
2023-08-01T19:04:29.141Z,18.82
2023-08-01T19:07:32.938Z,18.79
2023-08-01T19:10:36.243Z,18.75
2023-08-01T19:13:39.535Z,18.69
2023-08-01T19:16:43.024Z,18.67
2023-08-01T19:19:46.189Z,18.70
2023-08-01T19:22:51.182Z,18.75
2023-08-01T19:25:54.471Z,18.72
2023-08-01T19:28:57.285Z,18.67
2023-08-01T19:32:00.265Z,18.64
2023-08-01T19:35:03.362Z,18.60
2023-08-01T19:38:06.144Z,18.57
2023-08-01T19:41:09.531Z,18.54
2023-08-01T19:44:12.293Z,18.56
2023-08-01T19:47:15.151Z,18.55
2023-08-01T19:50:18.305Z,18.54
2023-08-01T19:53:22.409Z,18.54
2023-08-01T19:56:25.256Z,18.54
2023-08-01T19:59:28.206Z,18.55
2023-08-01T20:02:31.086Z,18.55
2023-08-01T20:05:34.372Z,18.53
2023-08-01T20:08:37.216Z,18.52
2023-08-01T20:11:40.073Z,18.52
2023-08-01T20:14:42.900Z,18.52
2023-08-01T20:17:47.349Z,18.52
2023-08-01T20:20:50.229Z,18.51
2023-08-01T20:23:52.985Z,18.52
2023-08-01T20:26:55.793Z,18.56
2023-08-01T20:29:58.604Z,18.59
2023-08-01T20:33:04.657Z,18.58
2023-08-01T20:36:07.522Z,18.54
2023-08-01T20:39:10.332Z,18.54
2023-08-01T20:42:13.196Z,18.57
2023-08-01T20:45:16.077Z,18.56
2023-08-01T20:48:18.927Z,18.59
2023-08-01T20:51:21.793Z,18.61
2023-08-01T20:54:24.700Z,18.61
2023-08-01T20:57:27.578Z,18.62
2023-08-01T21:00:30.460Z,18.62
2023-08-01T21:03:33.298Z,18.62
2023-08-01T21:06:36.160Z,18.62
2023-08-01T21:09:39.052Z,18.61
2023-08-01T21:12:42.040Z,18.58
2023-08-01T21:15:44.960Z,18.54
2023-08-01T21:18:48.368Z,18.53
2023-08-01T21:21:51.155Z,18.50
2023-08-01T21:24:53.950Z,18.49
2023-08-01T21:27:56.891Z,18.49
2023-08-01T21:30:59.801Z,18.46
2023-08-01T21:34:03.278Z,18.44
2023-08-01T21:37:06.429Z,18.44
2023-08-01T21:40:09.466Z,18.43
2023-08-01T21:43:12.323Z,18.40
2023-08-01T21:46:15.371Z,18.37
2023-08-01T21:49:18.214Z,18.36
2023-08-01T21:52:21.019Z,18.32
2023-08-01T21:55:24.188Z,18.32
2023-08-01T21:58:27.107Z,18.32
2023-08-01T22:01:30.017Z,18.32
2023-08-01T22:04:32.828Z,18.28
2023-08-01T22:07:36.961Z,18.26
2023-08-01T22:10:39.745Z,18.26
2023-08-01T22:13:42.601Z,18.27
2023-08-01T22:16:45.352Z,18.27
2023-08-01T22:19:48.153Z,18.25
2023-08-01T22:22:50.976Z,18.26
2023-08-01T22:25:54.300Z,18.24
2023-08-01T22:28:57.333Z,18.20
2023-08-01T22:32:00.126Z,18.16
2023-08-01T22:35:03.126Z,18.09
2023-08-01T22:38:05.895Z,18.02
2023-08-01T22:41:18.948Z,18.01
2023-08-01T22:44:21.800Z,17.98
2023-08-01T22:47:24.626Z,17.92
2023-08-01T22:50:29.356Z,17.90
2023-08-01T22:53:32.411Z,17.85
2023-08-01T22:56:35.206Z,17.81
2023-08-01T22:59:39.108Z,17.78
2023-08-01T23:02:42.107Z,17.75
2023-08-01T23:05:45.060Z,17.73
2023-08-01T23:08:47.897Z,17.71
2023-08-01T23:11:50.740Z,17.69
2023-08-01T23:14:53.723Z,17.67
2023-08-01T23:17:56.538Z,17.70
2023-08-01T23:21:01.630Z,17.69
2023-08-01T23:24:04.691Z,17.69
2023-08-01T23:27:07.715Z,17.70
2023-08-01T23:30:10.676Z,17.71
2023-08-01T23:33:13.677Z,17.69
2023-08-01T23:36:16.521Z,17.67
2023-08-01T23:39:19.390Z,17.70
2023-08-01T23:42:22.155Z,17.73
2023-08-01T23:45:24.959Z,17.77
2023-08-01T23:48:27.772Z,17.75
2023-08-01T23:51:30.579Z,17.69
2023-08-01T23:54:33.414Z,17.64
2023-08-01T23:57:36.192Z,17.60
